createdAt,value
2019-04-25T00:01:15.452Z,76.40
2019-04-25T00:03:45.617Z,75.14
2019-04-25T00:06:15.795Z,76.20
2019-04-25T00:08:45.931Z,76.39
2019-04-25T00:11:16.335Z,76.45
2019-04-25T00:13:46.519Z,78.58
2019-04-25T00:16:17.888Z,77.16
2019-04-25T00:18:48.421Z,76.61
2019-04-25T00:21:33.955Z,76.74
2019-04-25T00:24:09.828Z,77.68
2019-04-25T00:26:46.397Z,74.43
2019-04-25T00:29:16.605Z,74.61
2019-04-25T00:31:47.235Z,75.35
2019-04-25T00:34:17.385Z,76.45
2019-04-25T00:36:47.523Z,75.21
2019-04-25T00:39:17.715Z,74.71
2019-04-25T00:41:47.820Z,75.64
2019-04-25T00:44:18.034Z,74.81
2019-04-25T00:46:50.152Z,75.43
2019-04-25T00:49:20.076Z,75.78
2019-04-25T00:51:54.433Z,74.49
2019-04-25T00:54:24.507Z,74.37
2019-04-25T00:56:54.629Z,74.19
2019-04-25T00:59:32.095Z,75.03
2019-04-25T01:02:15.667Z,74.79
2019-04-25T01:04:45.842Z,75.55
2019-04-25T01:07:16.156Z,76.44
2019-04-25T01:09:46.465Z,75.85
2019-04-25T01:12:18.793Z,74.83
2019-04-25T01:14:48.913Z,75.12
2019-04-25T01:17:19.127Z,75.58
2019-04-25T01:19:49.237Z,75.25
2019-04-25T01:22:19.327Z,75.03
2019-04-25T01:24:49.460Z,75.86
2019-04-25T01:27:19.547Z,75.61
2019-04-25T01:29:49.818Z,74.80
2019-04-25T01:32:26.719Z,74.11
2019-04-25T01:35:04.128Z,74.39
2019-04-25T01:37:59.083Z,74.80
2019-04-25T01:40:51.190Z,75.83
2019-04-25T01:43:52.750Z,74.71
2019-04-25T01:46:22.123Z,74.74
2019-04-25T01:48:54.204Z,74.96
2019-04-25T01:51:29.193Z,74.36
2019-04-25T01:54:03.984Z,74.37
2019-04-25T01:56:31.107Z,74.51
2019-04-25T01:59:01.593Z,75.35
2019-04-25T02:01:32.203Z,74.85
2019-04-25T02:04:05.222Z,74.19
2019-04-25T02:06:35.428Z,74.48
2019-04-25T02:09:09.542Z,74.93
2019-04-25T02:11:58.959Z,74.60
2019-04-25T02:14:29.106Z,74.80
2019-04-25T02:17:00.332Z,74.83
2019-04-25T02:19:30.489Z,74.99
2019-04-25T02:22:00.587Z,74.99
2019-04-25T02:24:30.657Z,75.02
2019-04-25T02:27:00.925Z,75.06
2019-04-25T02:29:31.305Z,75.08
2019-04-25T02:32:07.880Z,74.79
2019-04-25T02:34:34.673Z,75.18
2019-04-25T02:37:09.358Z,75.26
2019-04-25T02:39:44.577Z,75.77
2019-04-25T02:42:16.749Z,76.63
2019-04-25T02:44:51.947Z,76.70
2019-04-25T02:47:46.223Z,76.28
2019-04-25T02:50:53.927Z,76.18
2019-04-25T02:53:38.860Z,76.28
2019-04-25T02:56:30.530Z,76.29
2019-04-25T02:58:44.766Z,76.70
2019-04-25T03:01:22.660Z,76.15
2019-04-25T03:03:49.926Z,76.84
2019-04-25T03:06:20.132Z,76.24
2019-04-25T03:08:50.224Z,76.20
2019-04-25T03:11:24.508Z,76.54
2019-04-25T03:13:57.503Z,76.10
2019-04-25T03:16:32.084Z,76.07
2019-04-25T03:19:27.292Z,76.43
2019-04-25T03:22:05.870Z,76.88
2019-04-25T03:24:35.437Z,77.05
2019-04-25T03:27:06.176Z,76.89
2019-04-25T03:29:37.224Z,76.27
2019-04-25T03:32:12.048Z,76.68
2019-04-25T03:34:39.120Z,76.88
2019-04-25T03:37:09.449Z,76.71
2019-04-25T03:39:39.561Z,76.94
2019-04-25T03:42:09.908Z,76.26
2019-04-25T03:44:43.819Z,76.43
2019-04-25T03:47:14.110Z,76.45
2019-04-25T03:49:44.174Z,76.43
2019-04-25T03:52:14.369Z,76.16
2019-04-25T03:54:44.444Z,76.49
2019-04-25T03:57:14.688Z,75.99
2019-04-25T03:59:44.976Z,76.02
2019-04-25T04:02:20.216Z,76.18
2019-04-25T04:04:50.350Z,76.27
2019-04-25T04:07:20.468Z,76.34
2019-04-25T04:09:50.578Z,76.24
2019-04-25T04:12:21.866Z,76.36
2019-04-25T04:14:53.633Z,76.91
2019-04-25T04:17:36.285Z,76.32
2019-04-25T04:20:43.653Z,76.51
2019-04-25T04:23:27.948Z,77.74
2019-04-25T04:25:58.104Z,78.81
2019-04-25T04:28:28.220Z,77.88
2019-04-25T04:30:58.330Z,77.55
2019-04-25T04:33:34.650Z,78.28
2019-04-25T04:36:04.885Z,78.14
2019-04-25T04:38:35.050Z,77.59
2019-04-25T04:41:05.092Z,76.89
2019-04-25T04:43:35.486Z,76.92
2019-04-25T04:46:05.562Z,77.33
2019-04-25T04:48:35.731Z,76.43
2019-04-25T04:51:08.934Z,76.00
2019-04-25T04:53:39.072Z,76.64
2019-04-25T04:56:09.673Z,75.25
2019-04-25T04:58:39.782Z,74.90
2019-04-25T05:01:10.222Z,74.75
2019-04-25T05:04:03.971Z,74.91
2019-04-25T05:06:53.619Z,74.51
2019-04-25T05:09:27.104Z,74.51
2019-04-25T05:11:58.502Z,74.72
2019-04-25T05:14:28.633Z,73.91
2019-04-25T05:16:58.758Z,74.30
2019-04-25T05:19:30.056Z,74.95
2019-04-25T05:22:00.173Z,74.68
2019-04-25T05:24:30.281Z,74.88
2019-04-25T05:27:00.336Z,74.77
2019-04-25T05:29:30.503Z,74.67
2019-04-25T05:32:00.612Z,74.55
2019-04-25T05:34:34.425Z,74.20
2019-04-25T05:37:04.584Z,75.62
2019-04-25T05:39:35.253Z,75.16
2019-04-25T05:42:27.705Z,74.48
2019-04-25T05:44:59.565Z,75.23
2019-04-25T05:47:29.770Z,73.50
2019-04-25T05:49:59.895Z,73.97
2019-04-25T05:52:31.087Z,74.33
2019-04-25T05:55:01.186Z,74.02
2019-04-25T05:57:43.594Z,73.73
2019-04-25T06:00:03.669Z,74.21
2019-04-25T06:02:34.992Z,72.67
2019-04-25T06:05:05.264Z,72.07
2019-04-25T06:07:35.310Z,72.58
2019-04-25T06:10:25.700Z,71.75
2019-04-25T06:13:27.908Z,71.43
2019-04-25T06:16:06.195Z,70.39
2019-04-25T06:18:55.278Z,71.10
2019-04-25T06:21:25.641Z,69.97
2019-04-25T06:24:18.966Z,70.28
2019-04-25T06:27:20.566Z,68.98
2019-04-25T06:29:59.125Z,69.03
2019-04-25T06:32:27.104Z,68.80
2019-04-25T06:34:57.757Z,68.60
2019-04-25T06:37:30.039Z,68.05
2019-04-25T06:40:00.105Z,67.40
2019-04-25T06:42:30.411Z,67.45
2019-04-25T06:45:25.031Z,66.41
2019-04-25T06:48:13.988Z,66.61
2019-04-25T06:50:44.273Z,65.02
2019-04-25T06:53:14.367Z,64.90
2019-04-25T06:55:45.002Z,65.44
2019-04-25T06:58:15.349Z,64.40
2019-04-25T07:00:57.183Z,65.19
2019-04-25T07:03:17.296Z,64.48
2019-04-25T07:05:47.412Z,64.19
2019-04-25T07:08:17.534Z,63.51
2019-04-25T07:10:49.251Z,63.87
2019-04-25T07:13:19.375Z,63.76
2019-04-25T07:15:49.577Z,62.30
2019-04-25T07:18:19.728Z,61.82
2019-04-25T07:20:49.827Z,61.71
2019-04-25T07:23:20.003Z,61.08
2019-04-25T07:25:59.417Z,61.67
2019-04-25T07:28:47.193Z,61.51
2019-04-25T07:31:48.678Z,60.27
2019-04-25T07:34:25.043Z,59.62
2019-04-25T07:36:55.602Z,59.40
2019-04-25T07:39:26.065Z,57.51
2019-04-25T07:41:57.630Z,58.40
2019-04-25T07:44:38.765Z,57.59
2019-04-25T07:46:59.604Z,57.36
2019-04-25T07:49:30.499Z,56.48
2019-04-25T07:52:00.799Z,56.61
2019-04-25T07:54:34.413Z,55.88
2019-04-25T07:57:05.562Z,54.80
2019-04-25T07:59:36.376Z,54.59
2019-04-25T08:02:06.905Z,55.52
2019-04-25T08:04:37.214Z,55.10
2019-04-25T08:07:07.416Z,54.11
2019-04-25T08:09:37.973Z,53.42
2019-04-25T08:12:08.249Z,52.97
2019-04-25T08:14:49.683Z,52.62
2019-04-25T08:17:39.885Z,52.74
2019-04-25T08:20:10.716Z,52.65
2019-04-25T08:22:56.227Z,53.47
2019-04-25T08:25:16.487Z,52.54
2019-04-25T08:27:46.671Z,51.23
2019-04-25T08:30:18.334Z,51.31
2019-04-25T08:32:48.485Z,51.14
2019-04-25T08:35:18.574Z,49.10
2019-04-25T08:37:50.562Z,48.80
2019-04-25T08:40:21.196Z,47.95
2019-04-25T08:42:53.748Z,48.04
2019-04-25T08:45:24.544Z,46.64
2019-04-25T08:47:54.700Z,46.53
2019-04-25T08:50:33.187Z,46.58
2019-04-25T08:53:03.966Z,49.15
2019-04-25T08:55:53.916Z,47.07
2019-04-25T08:59:01.453Z,46.83
2019-04-25T09:01:40.643Z,48.43
2019-04-25T09:04:16.236Z,47.04
2019-04-25T09:06:46.326Z,46.69
2019-04-25T09:09:18.688Z,47.02
2019-04-25T09:11:48.811Z,44.93
2019-04-25T09:14:20.222Z,43.83
2019-04-25T09:16:53.379Z,47.25
2019-04-25T09:19:24.142Z,44.89
2019-04-25T09:21:54.366Z,44.34
2019-04-25T09:24:24.685Z,43.79
2019-04-25T09:26:55.230Z,43.48
2019-04-25T09:29:25.502Z,43.65
2019-04-25T09:31:55.687Z,42.87
2019-04-25T09:34:25.794Z,43.00
2019-04-25T09:36:55.940Z,42.80
2019-04-25T09:39:43.497Z,42.31
2019-04-25T09:42:14.495Z,43.40
2019-04-25T09:45:03.785Z,41.94
2019-04-25T09:47:35.989Z,39.82
2019-04-25T09:50:09.972Z,38.71
2019-04-25T09:52:40.219Z,39.07
2019-04-25T09:55:35.983Z,38.86
2019-04-25T09:58:15.235Z,35.92
2019-04-25T10:00:48.750Z,36.73
2019-04-25T10:03:18.902Z,36.93
2019-04-25T10:05:49.084Z,36.40
2019-04-25T10:08:20.171Z,36.42
2019-04-25T10:10:50.306Z,36.41
2019-04-25T10:13:20.481Z,36.75
2019-04-25T10:16:05.967Z,36.21
2019-04-25T10:18:37.744Z,37.15
2019-04-25T10:21:11.313Z,36.76
2019-04-25T10:23:44.081Z,35.89
2019-04-25T10:26:14.714Z,36.51
2019-04-25T10:28:45.194Z,35.35
2019-04-25T10:31:15.579Z,36.25
2019-04-25T10:33:47.057Z,35.49
2019-04-25T10:36:17.252Z,35.64
2019-04-25T10:39:03.274Z,36.31
2019-04-25T10:41:20.035Z,36.26
2019-04-25T10:43:50.452Z,36.45
2019-04-25T10:46:21.930Z,36.56
2019-04-25T10:48:55.943Z,36.19
2019-04-25T10:51:25.753Z,35.44
2019-04-25T10:53:55.944Z,35.23
2019-04-25T10:56:26.343Z,34.71
2019-04-25T10:58:57.911Z,35.15
2019-04-25T11:01:28.963Z,35.23
2019-04-25T11:04:04.750Z,34.34
2019-04-25T11:06:35.948Z,33.10
2019-04-25T11:09:13.794Z,34.15
2019-04-25T11:11:48.531Z,34.66
2019-04-25T11:14:18.708Z,35.83
2019-04-25T11:16:48.829Z,36.67
2019-04-25T11:19:18.943Z,36.66
2019-04-25T11:21:50.016Z,36.74
2019-04-25T11:24:20.430Z,34.11
2019-04-25T11:26:51.525Z,39.00
2019-04-25T11:29:24.409Z,34.58
2019-04-25T11:31:54.746Z,34.79
2019-04-25T11:34:24.931Z,35.06
2019-04-25T11:36:55.143Z,34.95
2019-04-25T11:39:48.095Z,34.92
2019-04-25T11:42:20.989Z,35.45
2019-04-25T11:44:52.697Z,34.89
2019-04-25T11:47:26.218Z,35.19
2019-04-25T11:49:56.454Z,35.83
2019-04-25T11:52:28.273Z,37.31
2019-04-25T11:54:58.389Z,36.09
2019-04-25T11:57:28.541Z,35.75
2019-04-25T11:59:58.655Z,35.54
2019-04-25T12:02:30.221Z,36.34
2019-04-25T12:05:00.368Z,36.07
2019-04-25T12:07:30.727Z,35.95
2019-04-25T12:10:03.809Z,35.59
2019-04-25T12:12:37.908Z,35.50
2019-04-25T12:15:25.835Z,36.04
2019-04-25T12:17:56.079Z,36.26
2019-04-25T12:20:26.823Z,37.06
2019-04-25T12:23:08.379Z,34.77
2019-04-25T12:25:34.096Z,34.24
2019-04-25T12:28:07.107Z,33.89
2019-04-25T12:30:40.314Z,34.74
2019-04-25T12:33:20.361Z,33.13
2019-04-25T12:35:41.022Z,34.62
2019-04-25T12:38:14.221Z,34.93
2019-04-25T12:40:44.431Z,37.19
2019-04-25T12:43:14.629Z,34.80
2019-04-25T12:45:50.586Z,34.10
2019-04-25T12:48:20.704Z,34.71
2019-04-25T12:50:51.897Z,34.65
2019-04-25T12:53:23.578Z,34.37
2019-04-25T12:55:54.847Z,35.61
2019-04-25T12:58:25.103Z,35.46
2019-04-25T13:00:58.656Z,34.95
2019-04-25T13:03:27.261Z,35.88
2019-04-25T13:05:58.520Z,36.60
2019-04-25T13:08:28.637Z,35.66
2019-04-25T13:11:08.049Z,34.41
2019-04-25T13:13:30.572Z,33.25
2019-04-25T13:16:00.726Z,32.99
2019-04-25T13:18:30.903Z,32.95
2019-04-25T13:21:01.040Z,33.27
2019-04-25T13:23:32.031Z,34.72
2019-04-25T13:26:05.266Z,33.01
2019-04-25T13:28:44.494Z,31.36
2019-04-25T13:31:36.722Z,30.05
2019-04-25T13:34:14.230Z,30.06
2019-04-25T13:36:44.457Z,31.26
2019-04-25T13:39:17.198Z,31.83
2019-04-25T13:41:47.903Z,33.23
2019-04-25T13:44:18.103Z,33.55
2019-04-25T13:46:48.883Z,33.07
2019-04-25T13:49:19.464Z,32.56
2019-04-25T13:51:53.732Z,33.89
2019-04-25T13:54:25.039Z,35.02
2019-04-25T13:56:55.474Z,34.56
2019-04-25T13:59:25.732Z,33.44
2019-04-25T14:01:57.775Z,33.43
2019-04-25T14:04:28.159Z,32.55
2019-04-25T14:06:58.226Z,32.87
2019-04-25T14:09:29.822Z,32.92
2019-04-25T14:11:59.911Z,33.53
2019-04-25T14:14:30.267Z,32.26
2019-04-25T14:17:23.103Z,33.34
2019-04-25T14:20:14.248Z,31.76
2019-04-25T14:22:48.210Z,32.65
2019-04-25T14:25:18.628Z,31.94
2019-04-25T14:27:48.735Z,33.28
2019-04-25T14:30:20.966Z,32.74
2019-04-25T14:32:53.653Z,33.93
2019-04-25T14:35:24.141Z,31.89
2019-04-25T14:37:54.286Z,32.05
2019-04-25T14:40:25.826Z,33.17
2019-04-25T14:42:57.019Z,31.19
2019-04-25T14:45:27.165Z,33.69
2019-04-25T14:47:57.360Z,33.08
2019-04-25T14:50:30.053Z,33.14
2019-04-25T14:53:00.150Z,32.57
2019-04-25T14:55:56.688Z,32.06
2019-04-25T14:58:30.358Z,31.69
2019-04-25T15:01:00.902Z,34.21
2019-04-25T15:03:31.807Z,31.90
2019-04-25T15:06:02.008Z,33.28
2019-04-25T15:08:32.705Z,33.34
2019-04-25T15:11:03.096Z,32.47
2019-04-25T15:13:33.203Z,33.64
2019-04-25T15:16:04.882Z,32.43
2019-04-25T15:18:46.417Z,32.62
2019-04-25T15:21:09.754Z,32.56
2019-04-25T15:23:39.844Z,32.72
2019-04-25T15:26:09.974Z,31.32
2019-04-25T15:28:40.949Z,32.43
2019-04-25T15:31:11.317Z,31.39
2019-04-25T15:33:41.474Z,31.20
2019-04-25T15:36:17.533Z,31.67
2019-04-25T15:38:53.503Z,30.63
2019-04-25T15:41:45.254Z,30.82
2019-04-25T15:44:36.443Z,29.93
2019-04-25T15:47:09.359Z,28.33
2019-04-25T15:49:39.512Z,29.12
2019-04-25T15:52:10.440Z,28.89
2019-04-25T15:54:40.574Z,28.50
2019-04-25T15:57:10.950Z,28.42
2019-04-25T15:59:41.290Z,29.13
2019-04-25T16:02:13.236Z,28.41
2019-04-25T16:04:43.515Z,27.93
2019-04-25T16:07:13.754Z,27.28
2019-04-25T16:09:43.873Z,27.10
2019-04-25T16:12:14.034Z,27.10
2019-04-25T16:14:44.263Z,27.22
2019-04-25T16:17:14.480Z,27.84
2019-04-25T16:19:44.704Z,27.10
2019-04-25T16:22:14.953Z,26.27
2019-04-25T16:24:45.097Z,27.70
2019-04-25T16:27:15.491Z,27.60
2019-04-25T16:29:45.614Z,27.28
2019-04-25T16:32:21.050Z,27.90
2019-04-25T16:34:51.410Z,27.53
2019-04-25T16:37:21.573Z,27.70
2019-04-25T16:39:51.682Z,26.92
2019-04-25T16:42:21.810Z,26.28
2019-04-25T16:44:51.970Z,28.09
2019-04-25T16:47:24.560Z,27.17
2019-04-25T16:49:54.718Z,27.89
2019-04-25T16:52:25.560Z,28.75
2019-04-25T16:54:55.903Z,28.38
2019-04-25T16:57:26.126Z,28.38
2019-04-25T16:59:56.253Z,29.03
2019-04-25T17:02:35.471Z,27.96
2019-04-25T17:05:02.157Z,29.07
2019-04-25T17:07:32.413Z,28.03
2019-04-25T17:10:02.489Z,28.67
2019-04-25T17:12:34.363Z,28.28
2019-04-25T17:15:17.067Z,28.32
2019-04-25T17:18:15.291Z,27.84
2019-04-25T17:20:50.949Z,27.58
2019-04-25T17:23:21.630Z,27.58
2019-04-25T17:25:51.721Z,28.10
2019-04-25T17:28:22.283Z,29.35
2019-04-25T17:30:58.213Z,28.67
2019-04-25T17:33:47.459Z,29.16
2019-04-25T17:36:26.270Z,29.13
2019-04-25T17:39:00.781Z,29.10
2019-04-25T17:41:33.136Z,29.70
2019-04-25T17:44:03.560Z,30.32
2019-04-25T17:46:34.018Z,30.19
2019-04-25T17:49:04.226Z,30.80
2019-04-25T17:51:34.497Z,30.94
2019-04-25T17:54:05.624Z,30.67
2019-04-25T17:56:36.406Z,31.36
2019-04-25T17:59:06.644Z,32.13
2019-04-25T18:01:36.847Z,32.06
2019-04-25T18:04:07.299Z,31.18
2019-04-25T18:06:37.688Z,32.35
2019-04-25T18:09:08.663Z,32.70
2019-04-25T18:11:40.199Z,33.01
2019-04-25T18:14:10.411Z,33.28
2019-04-25T18:16:44.813Z,33.56
2019-04-25T18:19:35.260Z,33.48
2019-04-25T18:22:16.275Z,34.07
2019-04-25T18:25:02.688Z,34.51
2019-04-25T18:27:38.038Z,34.05
2019-04-25T18:30:09.083Z,33.54
2019-04-25T18:32:41.445Z,34.23
2019-04-25T18:35:20.517Z,34.49
2019-04-25T18:38:18.624Z,34.09
2019-04-25T18:41:07.712Z,34.54
2019-04-25T18:43:41.151Z,34.46
2019-04-25T18:46:20.244Z,34.71
2019-04-25T18:48:50.505Z,34.51
2019-04-25T18:51:20.727Z,34.57
2019-04-25T18:54:09.849Z,34.24
2019-04-25T18:56:59.049Z,35.51
2019-04-25T19:00:06.588Z,35.76
2019-04-25T19:02:57.600Z,34.88
2019-04-25T19:05:47.233Z,35.50
2019-04-25T19:08:18.127Z,36.09
2019-04-25T19:10:48.347Z,36.07
2019-04-25T19:13:18.554Z,36.74
2019-04-25T19:15:48.747Z,35.90
2019-04-25T19:18:18.929Z,36.04
2019-04-25T19:20:49.237Z,36.65
2019-04-25T19:23:19.471Z,35.74
2019-04-25T19:25:49.682Z,36.59
2019-04-25T19:28:19.950Z,36.62
2019-04-25T19:30:51.455Z,36.31
2019-04-25T19:33:35.066Z,36.91
2019-04-25T19:35:55.801Z,36.38
2019-04-25T19:38:26.032Z,36.80
2019-04-25T19:41:15.324Z,36.88
2019-04-25T19:43:58.480Z,37.80
2019-04-25T19:46:42.866Z,36.82
2019-04-25T19:49:13.252Z,36.86
2019-04-25T19:51:43.650Z,37.33
2019-04-25T19:54:15.096Z,37.47
2019-04-25T19:56:45.374Z,37.16
2019-04-25T19:59:15.751Z,36.43
2019-04-25T20:01:45.995Z,37.17
2019-04-25T20:04:25.640Z,37.39
2019-04-25T20:07:19.359Z,37.37
2019-04-25T20:10:20.843Z,37.62
2019-04-25T20:12:53.378Z,37.94
2019-04-25T20:15:23.642Z,38.20
2019-04-25T20:17:54.250Z,37.45
2019-04-25T20:20:27.161Z,37.98
2019-04-25T20:22:57.386Z,37.61
2019-04-25T20:25:27.628Z,38.14
2019-04-25T20:27:57.765Z,38.41
2019-04-25T20:30:28.016Z,37.98
2019-04-25T20:32:59.974Z,39.29
2019-04-25T20:35:30.111Z,38.54
2019-04-25T20:38:00.337Z,38.50
2019-04-25T20:40:30.527Z,38.84
2019-04-25T20:43:02.040Z,38.93
2019-04-25T20:45:32.297Z,38.48
2019-04-25T20:48:02.586Z,38.76
2019-04-25T20:50:33.208Z,38.70
2019-04-25T20:53:04.386Z,39.52
2019-04-25T20:55:34.593Z,39.63
2019-04-25T20:58:04.780Z,40.46
2019-04-25T21:00:42.793Z,39.76
2019-04-25T21:03:14.190Z,39.55
2019-04-25T21:05:45.543Z,39.91
2019-04-25T21:08:15.778Z,39.36
2019-04-25T21:10:48.110Z,39.62
2019-04-25T21:13:24.490Z,39.72
2019-04-25T21:16:01.154Z,40.60
2019-04-25T21:18:38.878Z,40.26
2019-04-25T21:21:08.998Z,40.33
2019-04-25T21:23:39.834Z,40.78
2019-04-25T21:26:09.980Z,40.26
2019-04-25T21:28:40.151Z,40.34
2019-04-25T21:31:10.328Z,40.14
2019-04-25T21:33:40.494Z,40.21
2019-04-25T21:36:10.705Z,40.79
2019-04-25T21:38:41.180Z,40.60
2019-04-25T21:41:36.244Z,41.18
2019-04-25T21:44:06.964Z,41.14
2019-04-25T21:46:37.645Z,40.55
2019-04-25T21:49:08.180Z,40.14
2019-04-25T21:51:40.778Z,41.04
2019-04-25T21:54:14.411Z,40.39
2019-04-25T21:56:45.724Z,41.19
2019-04-25T21:59:16.304Z,41.09
2019-04-25T22:01:46.459Z,41.64
2019-04-25T22:04:16.639Z,41.33
2019-04-25T22:06:47.081Z,41.97
2019-04-25T22:09:19.358Z,40.97
2019-04-25T22:11:49.869Z,40.63
2019-04-25T22:14:20.878Z,41.29
2019-04-25T22:16:51.250Z,40.86
2019-04-25T22:19:21.748Z,41.40
2019-04-25T22:21:52.388Z,40.99
2019-04-25T22:24:22.762Z,41.17
2019-04-25T22:26:56.440Z,41.68
2019-04-25T22:29:27.408Z,41.44
2019-04-25T22:32:10.845Z,41.61
2019-04-25T22:34:58.227Z,40.80
2019-04-25T22:37:29.656Z,40.71
2019-04-25T22:40:01.195Z,41.22
2019-04-25T22:42:31.462Z,42.09
2019-04-25T22:45:01.802Z,41.50
2019-04-25T22:47:33.510Z,42.09
2019-04-25T22:50:05.006Z,41.82
2019-04-25T22:52:35.368Z,41.15
2019-04-25T22:55:06.702Z,41.29
2019-04-25T22:57:36.982Z,40.62
2019-04-25T23:00:11.319Z,41.09
2019-04-25T23:02:49.650Z,44.50
2019-04-25T23:05:26.519Z,45.26
2019-04-25T23:07:56.882Z,47.01
2019-04-25T23:10:27.240Z,48.27
2019-04-25T23:12:57.424Z,48.71
2019-04-25T23:15:27.614Z,49.03
2019-04-25T23:17:57.970Z,49.70
2019-04-25T23:20:28.073Z,49.41
2019-04-25T23:22:58.150Z,49.78
2019-04-25T23:25:53.378Z,50.29
2019-04-25T23:28:25.712Z,50.15
2019-04-25T23:31:20.849Z,50.36
2019-04-25T23:33:50.916Z,50.60
2019-04-25T23:36:21.347Z,50.65
2019-04-25T23:38:51.445Z,51.21
2019-04-25T23:41:21.897Z,51.46
2019-04-25T23:43:54.388Z,51.43
2019-04-25T23:46:24.883Z,51.30
2019-04-25T23:48:55.077Z,51.62
2019-04-25T23:51:25.223Z,51.84
2019-04-25T23:53:55.700Z,52.14
2019-04-25T23:56:25.837Z,51.97
2019-04-25T23:58:56.321Z,52.07
